sensor_id;sensor_type;location;lat;lon;timestamp;P1;durP1;ratioP1;P2;durP2;ratioP2
9485;SDS011;4781;48.776;9.200;2023-02-08T00:01:24;17.73;;;9.90;;
9485;SDS011;4781;48.776;9.200;2023-02-08T00:03:53;16.60;;;9.78;;
9485;SDS011;4781;48.776;9.200;2023-02-08T00:06:21;16.32;;;8.85;;
9485;SDS011;4781;48.776;9.200;2023-02-08T00:08:50;19.50;;;11.20;;
9485;SDS011;4781;48.776;9.200;2023-02-08T00:11:18;18.32;;;11.00;;
9485;SDS011;4781;48.776;9.200;2023-02-08T00:13:46;18.85;;;10.70;;
9485;SDS011;4781;48.776;9.200;2023-02-08T00:16:15;18.17;;;10.58;;
9485;SDS011;4781;48.776;9.200;2023-02-08T00:18:44;18.00;;;10.65;;
9485;SDS011;4781;48.776;9.200;2023-02-08T00:21:13;21.33;;;11.00;;
9485;SDS011;4781;48.776;9.200;2023-02-08T00:23:43;16.60;;;10.18;;
9485;SDS011;4781;48.776;9.200;2023-02-08T00:26:12;17.05;;;10.20;;
9485;SDS011;4781;48.776;9.200;2023-02-08T00:28:41;17.48;;;10.58;;
9485;SDS011;4781;48.776;9.200;2023-02-08T00:31:11;18.80;;;10.68;;
9485;SDS011;4781;48.776;9.200;2023-02-08T00:33:40;19.32;;;11.05;;
9485;SDS011;4781;48.776;9.200;2023-02-08T00:36:09;17.37;;;10.50;;
9485;SDS011;4781;48.776;9.200;2023-02-08T00:38:38;18.37;;;10.53;;
9485;SDS011;4781;48.776;9.200;2023-02-08T00:41:07;16.97;;;10.23;;
9485;SDS011;4781;48.776;9.200;2023-02-08T00:43:35;16.90;;;9.75;;
9485;SDS011;4781;48.776;9.200;2023-02-08T00:46:04;17.73;;;10.72;;
9485;SDS011;4781;48.776;9.200;2023-02-08T00:48:34;18.70;;;9.98;;
9485;SDS011;4781;48.776;9.200;2023-02-08T00:51:03;17.27;;;9.48;;
9485;SDS011;4781;48.776;9.200;2023-02-08T00:53:39;16.20;;;9.95;;
9485;SDS011;4781;48.776;9.200;2023-02-08T00:56:11;18.20;;;10.65;;
9485;SDS011;4781;48.776;9.200;2023-02-08T00:58:41;19.23;;;10.53;;
9485;SDS011;4781;48.776;9.200;2023-02-08T01:01:09;17.55;;;10.68;;
9485;SDS011;4781;48.776;9.200;2023-02-08T01:03:39;16.35;;;10.40;;
9485;SDS011;4781;48.776;9.200;2023-02-08T01:06:10;18.87;;;10.63;;
9485;SDS011;4781;48.776;9.200;2023-02-08T01:08:41;18.85;;;11.12;;
9485;SDS011;4781;48.776;9.200;2023-02-08T01:11:15;18.57;;;11.33;;
9485;SDS011;4781;48.776;9.200;2023-02-08T01:13:43;16.45;;;9.53;;
9485;SDS011;4781;48.776;9.200;2023-02-08T01:16:13;20.10;;;9.95;;
9485;SDS011;4781;48.776;9.200;2023-02-08T01:18:45;18.37;;;10.13;;
9485;SDS011;4781;48.776;9.200;2023-02-08T01:21:17;19.73;;;10.53;;
9485;SDS011;4781;48.776;9.200;2023-02-08T01:23:48;18.55;;;10.28;;
9485;SDS011;4781;48.776;9.200;2023-02-08T01:26:17;16.42;;;9.23;;
9485;SDS011;4781;48.776;9.200;2023-02-08T01:28:47;16.17;;;9.75;;
9485;SDS011;4781;48.776;9.200;2023-02-08T01:31:18;20.17;;;10.55;;
9485;SDS011;4781;48.776;9.200;2023-02-08T01:33:49;20.57;;;10.20;;
9485;SDS011;4781;48.776;9.200;2023-02-08T01:36:17;17.37;;;9.60;;
9485;SDS011;4781;48.776;9.200;2023-02-08T01:38:46;18.57;;;10.05;;
9485;SDS011;4781;48.776;9.200;2023-02-08T01:41:16;18.00;;;10.00;;
9485;SDS011;4781;48.776;9.200;2023-02-08T01:46:34;15.78;;;9.60;;
9485;SDS011;4781;48.776;9.200;2023-02-08T01:49:07;18.45;;;9.75;;
9485;SDS011;4781;48.776;9.200;2023-02-08T01:51:39;16.50;;;9.43;;
9485;SDS011;4781;48.776;9.200;2023-02-08T01:54:13;18.73;;;10.38;;
9485;SDS011;4781;48.776;9.200;2023-02-08T01:56:44;19.95;;;10.50;;
9485;SDS011;4781;48.776;9.200;2023-02-08T01:59:19;18.70;;;10.63;;
9485;SDS011;4781;48.776;9.200;2023-02-08T02:02:06;19.67;;;9.60;;
9485;SDS011;4781;48.776;9.200;2023-02-08T02:04:38;17.95;;;9.80;;
9485;SDS011;4781;48.776;9.200;2023-02-08T02:07:07;16.00;;;8.88;;
9485;SDS011;4781;48.776;9.200;2023-02-08T02:12:31;17.90;;;9.95;;
9485;SDS011;4781;48.776;9.200;2023-02-08T02:15:01;15.55;;;9.18;;
9485;SDS011;4781;48.776;9.200;2023-02-08T02:17:31;19.62;;;9.08;;
9485;SDS011;4781;48.776;9.200;2023-02-08T02:20:08;18.98;;;9.68;;
9485;SDS011;4781;48.776;9.200;2023-02-08T02:35:15;19.27;;;9.45;;
9485;SDS011;4781;48.776;9.200;2023-02-08T02:37:59;15.83;;;9.58;;
9485;SDS011;4781;48.776;9.200;2023-02-08T02:40:55;18.77;;;10.50;;
9485;SDS011;4781;48.776;9.200;2023-02-08T02:44:13;15.23;;;9.28;;
9485;SDS011;4781;48.776;9.200;2023-02-08T02:46:58;17.73;;;9.73;;
9485;SDS011;4781;48.776;9.200;2023-02-08T02:49:42;17.70;;;9.53;;
9485;SDS011;4781;48.776;9.200;2023-02-08T02:54:52;17.25;;;8.65;;
9485;SDS011;4781;48.776;9.200;2023-02-08T02:57:25;18.62;;;9.95;;
9485;SDS011;4781;48.776;9.200;2023-02-08T02:59:58;17.67;;;9.95;;
9485;SDS011;4781;48.776;9.200;2023-02-08T03:02:27;18.73;;;10.82;;
9485;SDS011;4781;48.776;9.200;2023-02-08T03:04:56;17.77;;;9.93;;
9485;SDS011;4781;48.776;9.200;2023-02-08T03:07:36;17.87;;;10.18;;
9485;SDS011;4781;48.776;9.200;2023-02-08T03:21:38;17.75;;;10.30;;
9485;SDS011;4781;48.776;9.200;2023-02-08T03:27:11;21.20;;;10.80;;
9485;SDS011;4781;48.776;9.200;2023-02-08T03:29:43;20.35;;;11.45;;
9485;SDS011;4781;48.776;9.200;2023-02-08T03:32:38;22.13;;;12.00;;
9485;SDS011;4781;48.776;9.200;2023-02-08T03:35:19;20.10;;;11.55;;
9485;SDS011;4781;48.776;9.200;2023-02-08T03:38:42;22.22;;;11.43;;
9485;SDS011;4781;48.776;9.200;2023-02-08T03:40:59;19.55;;;11.33;;
9485;SDS011;4781;48.776;9.200;2023-02-08T03:43:33;21.25;;;11.43;;
9485;SDS011;4781;48.776;9.200;2023-02-08T03:46:13;23.35;;;11.73;;
9485;SDS011;4781;48.776;9.200;2023-02-08T03:49:05;21.05;;;11.63;;
9485;SDS011;4781;48.776;9.200;2023-02-08T03:51:35;17.42;;;10.05;;
9485;SDS011;4781;48.776;9.200;2023-02-08T03:54:07;20.57;;;10.88;;
9485;SDS011;4781;48.776;9.200;2023-02-08T03:59:34;19.00;;;11.28;;
9485;SDS011;4781;48.776;9.200;2023-02-08T04:02:09;21.25;;;10.75;;
9485;SDS011;4781;48.776;9.200;2023-02-08T04:04:41;20.32;;;10.82;;
9485;SDS011;4781;48.776;9.200;2023-02-08T04:07:12;19.60;;;11.25;;
9485;SDS011;4781;48.776;9.200;2023-02-08T04:09:42;18.20;;;9.83;;
9485;SDS011;4781;48.776;9.200;2023-02-08T04:12:10;17.25;;;10.15;;
9485;SDS011;4781;48.776;9.200;2023-02-08T04:14:39;22.17;;;10.60;;
9485;SDS011;4781;48.776;9.200;2023-02-08T04:17:07;24.72;;;12.13;;
9485;SDS011;4781;48.776;9.200;2023-02-08T04:19:36;21.12;;;11.48;;
9485;SDS011;4781;48.776;9.200;2023-02-08T04:22:04;22.37;;;11.70;;
9485;SDS011;4781;48.776;9.200;2023-02-08T04:24:33;21.45;;;11.18;;
9485;SDS011;4781;48.776;9.200;2023-02-08T04:27:01;20.97;;;11.53;;
9485;SDS011;4781;48.776;9.200;2023-02-08T04:29:29;19.48;;;11.12;;
9485;SDS011;4781;48.776;9.200;2023-02-08T04:31:58;22.27;;;11.63;;
9485;SDS011;4781;48.776;9.200;2023-02-08T04:34:27;21.82;;;11.05;;
9485;SDS011;4781;48.776;9.200;2023-02-08T04:36:55;17.77;;;10.03;;
9485;SDS011;4781;48.776;9.200;2023-02-08T04:39:27;21.25;;;11.18;;
9485;SDS011;4781;48.776;9.200;2023-02-08T04:41:55;20.70;;;10.78;;
9485;SDS011;4781;48.776;9.200;2023-02-08T04:44:23;20.05;;;10.10;;
9485;SDS011;4781;48.776;9.200;2023-02-08T04:46:52;18.00;;;10.70;;
9485;SDS011;4781;48.776;9.200;2023-02-08T04:49:20;19.77;;;10.93;;
9485;SDS011;4781;48.776;9.200;2023-02-08T04:51:49;20.27;;;10.70;;
9485;SDS011;4781;48.776;9.200;2023-02-08T04:54:17;20.43;;;10.40;;
9485;SDS011;4781;48.776;9.200;2023-02-08T04:56:46;20.23;;;11.95;;
9485;SDS011;4781;48.776;9.200;2023-02-08T04:59:14;22.67;;;11.55;;
9485;SDS011;4781;48.776;9.200;2023-02-08T05:01:43;19.92;;;11.55;;
9485;SDS011;4781;48.776;9.200;2023-02-08T05:04:12;21.93;;;13.15;;
9485;SDS011;4781;48.776;9.200;2023-02-08T05:06:40;20.80;;;11.85;;
9485;SDS011;4781;48.776;9.200;2023-02-08T05:09:09;20.62;;;11.65;;
9485;SDS011;4781;48.776;9.200;2023-02-08T05:11:37;19.77;;;10.72;;
9485;SDS011;4781;48.776;9.200;2023-02-08T05:14:07;20.20;;;11.30;;
9485;SDS011;4781;48.776;9.200;2023-02-08T05:16:35;21.45;;;11.30;;
9485;SDS011;4781;48.776;9.200;2023-02-08T05:19:03;17.40;;;10.18;;
9485;SDS011;4781;48.776;9.200;2023-02-08T05:21:32;22.85;;;10.95;;
9485;SDS011;4781;48.776;9.200;2023-02-08T05:24:01;17.30;;;10.50;;
9485;SDS011;4781;48.776;9.200;2023-02-08T05:26:29;17.48;;;9.68;;
9485;SDS011;4781;48.776;9.200;2023-02-08T05:28:58;19.87;;;10.43;;
9485;SDS011;4781;48.776;9.200;2023-02-08T05:31:26;16.87;;;10.13;;
9485;SDS011;4781;48.776;9.200;2023-02-08T05:33:55;18.00;;;10.38;;
9485;SDS011;4781;48.776;9.200;2023-02-08T05:36:23;21.97;;;11.35;;
9485;SDS011;4781;48.776;9.200;2023-02-08T05:38:51;20.25;;;10.08;;
9485;SDS011;4781;48.776;9.200;2023-02-08T05:41:20;19.50;;;10.53;;
9485;SDS011;4781;48.776;9.200;2023-02-08T05:43:48;22.10;;;11.03;;
9485;SDS011;4781;48.776;9.200;2023-02-08T05:46:17;18.80;;;11.18;;
9485;SDS011;4781;48.776;9.200;2023-02-08T05:48:45;19.10;;;10.72;;
9485;SDS011;4781;48.776;9.200;2023-02-08T05:51:14;25.97;;;11.35;;
9485;SDS011;4781;48.776;9.200;2023-02-08T05:53:42;23.45;;;10.98;;
9485;SDS011;4781;48.776;9.200;2023-02-08T05:56:11;17.12;;;10.43;;
9485;SDS011;4781;48.776;9.200;2023-02-08T05:58:39;20.20;;;11.10;;
9485;SDS011;4781;48.776;9.200;2023-02-08T06:01:08;18.75;;;10.38;;
9485;SDS011;4781;48.776;9.200;2023-02-08T06:03:38;21.50;;;11.15;;
9485;SDS011;4781;48.776;9.200;2023-02-08T06:06:07;19.57;;;10.82;;
9485;SDS011;4781;48.776;9.200;2023-02-08T06:08:38;21.25;;;10.98;;
9485;SDS011;4781;48.776;9.200;2023-02-08T06:11:07;20.85;;;10.35;;
9485;SDS011;4781;48.776;9.200;2023-02-08T06:13:35;20.48;;;10.58;;
9485;SDS011;4781;48.776;9.200;2023-02-08T06:16:04;20.20;;;11.12;;
9485;SDS011;4781;48.776;9.200;2023-02-08T06:18:33;18.60;;;11.43;;
9485;SDS011;4781;48.776;9.200;2023-02-08T06:21:02;20.55;;;10.40;;
9485;SDS011;4781;48.776;9.200;2023-02-08T06:23:31;20.35;;;11.15;;
9485;SDS011;4781;48.776;9.200;2023-02-08T06:25:59;20.40;;;10.98;;
9485;SDS011;4781;48.776;9.200;2023-02-08T06:28:28;19.17;;;10.50;;
9485;SDS011;4781;48.776;9.200;2023-02-08T06:30:58;25.45;;;12.30;;
9485;SDS011;4781;48.776;9.200;2023-02-08T06:33:26;20.97;;;11.22;;
9485;SDS011;4781;48.776;9.200;2023-02-08T06:35:55;19.00;;;10.70;;
9485;SDS011;4781;48.776;9.200;2023-02-08T06:38:23;20.85;;;11.15;;
9485;SDS011;4781;48.776;9.200;2023-02-08T06:40:51;21.07;;;11.35;;
9485;SDS011;4781;48.776;9.200;2023-02-08T06:46:10;22.20;;;11.50;;
9485;SDS011;4781;48.776;9.200;2023-02-08T06:48:38;21.20;;;11.10;;
9485;SDS011;4781;48.776;9.200;2023-02-08T06:51:07;18.75;;;10.75;;
9485;SDS011;4781;48.776;9.200;2023-02-08T06:53:35;24.32;;;11.48;;
9485;SDS011;4781;48.776;9.200;2023-02-08T06:56:03;20.65;;;11.10;;
9485;SDS011;4781;48.776;9.200;2023-02-08T06:58:32;21.97;;;10.90;;
9485;SDS011;4781;48.776;9.200;2023-02-08T07:01:00;20.88;;;11.12;;
9485;SDS011;4781;48.776;9.200;2023-02-08T07:03:29;20.10;;;10.65;;
9485;SDS011;4781;48.776;9.200;2023-02-08T07:05:57;21.30;;;11.68;;
9485;SDS011;4781;48.776;9.200;2023-02-08T07:08:26;23.18;;;10.10;;
9485;SDS011;4781;48.776;9.200;2023-02-08T07:10:54;21.05;;;11.45;;
9485;SDS011;4781;48.776;9.200;2023-02-08T07:13:23;21.60;;;10.35;;
9485;SDS011;4781;48.776;9.200;2023-02-08T07:15:51;21.85;;;11.38;;
9485;SDS011;4781;48.776;9.200;2023-02-08T07:18:19;19.23;;;10.95;;
9485;SDS011;4781;48.776;9.200;2023-02-08T07:20:48;24.37;;;10.70;;
9485;SDS011;4781;48.776;9.200;2023-02-08T07:23:16;21.85;;;11.15;;
9485;SDS011;4781;48.776;9.200;2023-02-08T07:25:44;22.48;;;10.58;;
9485;SDS011;4781;48.776;9.200;2023-02-08T07:28:27;23.22;;;11.97;;
9485;SDS011;4781;48.776;9.200;2023-02-08T07:30:56;19.75;;;11.50;;
9485;SDS011;4781;48.776;9.200;2023-02-08T07:33:25;20.02;;;10.90;;
9485;SDS011;4781;48.776;9.200;2023-02-08T07:35:53;23.35;;;11.40;;
9485;SDS011;4781;48.776;9.200;2023-02-08T07:38:21;22.05;;;11.15;;
9485;SDS011;4781;48.776;9.200;2023-02-08T07:40:50;22.17;;;11.80;;
9485;SDS011;4781;48.776;9.200;2023-02-08T07:43:18;22.95;;;12.18;;
9485;SDS011;4781;48.776;9.200;2023-02-08T07:45:47;24.77;;;12.28;;
9485;SDS011;4781;48.776;9.200;2023-02-08T07:48:15;19.82;;;11.15;;
9485;SDS011;4781;48.776;9.200;2023-02-08T07:50:43;19.23;;;11.05;;
9485;SDS011;4781;48.776;9.200;2023-02-08T07:53:12;23.95;;;11.30;;
9485;SDS011;4781;48.776;9.200;2023-02-08T07:55:43;21.97;;;11.15;;
9485;SDS011;4781;48.776;9.200;2023-02-08T07:58:11;22.60;;;11.88;;
9485;SDS011;4781;48.776;9.200;2023-02-08T08:00:40;22.93;;;12.10;;
9485;SDS011;4781;48.776;9.200;2023-02-08T08:03:08;21.70;;;11.75;;
9485;SDS011;4781;48.776;9.200;2023-02-08T08:05:38;23.30;;;11.93;;
9485;SDS011;4781;48.776;9.200;2023-02-08T08:08:08;25.02;;;11.28;;
9485;SDS011;4781;48.776;9.200;2023-02-08T08:10:38;23.10;;;12.15;;
9485;SDS011;4781;48.776;9.200;2023-02-08T08:13:07;24.77;;;12.63;;
9485;SDS011;4781;48.776;9.200;2023-02-08T08:15:36;24.98;;;11.55;;
9485;SDS011;4781;48.776;9.200;2023-02-08T08:18:05;21.93;;;12.35;;
9485;SDS011;4781;48.776;9.200;2023-02-08T08:20:34;20.23;;;11.55;;
9485;SDS011;4781;48.776;9.200;2023-02-08T08:23:02;20.95;;;12.20;;
9485;SDS011;4781;48.776;9.200;2023-02-08T08:25:31;23.80;;;12.45;;
9485;SDS011;4781;48.776;9.200;2023-02-08T08:28:00;21.87;;;11.80;;
9485;SDS011;4781;48.776;9.200;2023-02-08T08:30:28;21.10;;;11.78;;
9485;SDS011;4781;48.776;9.200;2023-02-08T08:32:57;20.75;;;12.13;;
9485;SDS011;4781;48.776;9.200;2023-02-08T08:35:26;25.23;;;12.10;;
9485;SDS011;4781;48.776;9.200;2023-02-08T08:37:54;21.77;;;12.73;;
9485;SDS011;4781;48.776;9.200;2023-02-08T08:40:22;20.35;;;12.78;;
9485;SDS011;4781;48.776;9.200;2023-02-08T08:42:51;24.85;;;12.63;;
9485;SDS011;4781;48.776;9.200;2023-02-08T08:45:19;24.07;;;13.28;;
9485;SDS011;4781;48.776;9.200;2023-02-08T08:47:47;21.97;;;12.68;;
9485;SDS011;4781;48.776;9.200;2023-02-08T08:50:16;23.70;;;12.73;;
9485;SDS011;4781;48.776;9.200;2023-02-08T08:52:44;19.48;;;11.80;;
9485;SDS011;4781;48.776;9.200;2023-02-08T08:55:13;23.38;;;12.63;;
9485;SDS011;4781;48.776;9.200;2023-02-08T08:57:41;24.65;;;13.00;;
9485;SDS011;4781;48.776;9.200;2023-02-08T09:00:10;22.77;;;12.07;;
9485;SDS011;4781;48.776;9.200;2023-02-08T09:02:39;25.05;;;13.58;;
9485;SDS011;4781;48.776;9.200;2023-02-08T09:05:07;21.62;;;12.25;;
9485;SDS011;4781;48.776;9.200;2023-02-08T09:07:36;21.97;;;12.55;;
9485;SDS011;4781;48.776;9.200;2023-02-08T09:10:04;20.82;;;11.88;;
9485;SDS011;4781;48.776;9.200;2023-02-08T09:12:33;22.58;;;13.15;;
9485;SDS011;4781;48.776;9.200;2023-02-08T09:15:01;20.17;;;12.23;;
9485;SDS011;4781;48.776;9.200;2023-02-08T09:17:30;26.12;;;13.40;;
9485;SDS011;4781;48.776;9.200;2023-02-08T09:19:58;19.98;;;12.07;;
9485;SDS011;4781;48.776;9.200;2023-02-08T09:22:27;22.27;;;12.20;;
9485;SDS011;4781;48.776;9.200;2023-02-08T09:24:56;22.07;;;13.40;;
9485;SDS011;4781;48.776;9.200;2023-02-08T09:27:26;23.62;;;12.53;;
9485;SDS011;4781;48.776;9.200;2023-02-08T09:29:55;23.42;;;13.13;;
9485;SDS011;4781;48.776;9.200;2023-02-08T09:32:23;22.58;;;13.32;;
9485;SDS011;4781;48.776;9.200;2023-02-08T09:34:52;24.40;;;13.15;;
9485;SDS011;4781;48.776;9.200;2023-02-08T09:37:22;25.55;;;13.83;;
9485;SDS011;4781;48.776;9.200;2023-02-08T09:39:51;21.77;;;13.60;;
9485;SDS011;4781;48.776;9.200;2023-02-08T09:50:53;21.20;;;13.03;;
9485;SDS011;4781;48.776;9.200;2023-02-08T09:53:42;24.87;;;13.70;;
9485;SDS011;4781;48.776;9.200;2023-02-08T09:56:11;25.15;;;12.75;;
9485;SDS011;4781;48.776;9.200;2023-02-08T09:58:45;20.65;;;12.37;;
9485;SDS011;4781;48.776;9.200;2023-02-08T10:01:21;20.45;;;12.37;;
9485;SDS011;4781;48.776;9.200;2023-02-08T10:03:47;22.05;;;12.85;;
9485;SDS011;4781;48.776;9.200;2023-02-08T10:06:19;22.17;;;13.25;;
9485;SDS011;4781;48.776;9.200;2023-02-08T10:08:49;19.50;;;12.53;;
9485;SDS011;4781;48.776;9.200;2023-02-08T10:11:39;19.57;;;12.82;;
9485;SDS011;4781;48.776;9.200;2023-02-08T10:14:17;21.85;;;13.18;;
9485;SDS011;4781;48.776;9.200;2023-02-08T10:25:42;25.77;;;13.08;;
9485;SDS011;4781;48.776;9.200;2023-02-08T10:28:53;19.20;;;12.15;;
9485;SDS011;4781;48.776;9.200;2023-02-08T10:34:29;25.80;;;13.18;;
9485;SDS011;4781;48.776;9.200;2023-02-08T10:37:16;22.87;;;13.10;;
9485;SDS011;4781;48.776;9.200;2023-02-08T10:40:48;20.90;;;12.68;;
9485;SDS011;4781;48.776;9.200;2023-02-08T10:43:11;23.47;;;12.73;;
9485;SDS011;4781;48.776;9.200;2023-02-08T10:51:44;18.70;;;11.65;;
9485;SDS011;4781;48.776;9.200;2023-02-08T10:54:13;18.52;;;12.30;;
9485;SDS011;4781;48.776;9.200;2023-02-08T10:56:46;20.82;;;12.05;;
9485;SDS011;4781;48.776;9.200;2023-02-08T10:59:36;19.02;;;11.88;;
9485;SDS011;4781;48.776;9.200;2023-02-08T11:02:23;20.75;;;11.55;;
9485;SDS011;4781;48.776;9.200;2023-02-08T11:05:07;17.57;;;11.18;;
9485;SDS011;4781;48.776;9.200;2023-02-08T11:07:37;17.90;;;11.33;;
9485;SDS011;4781;48.776;9.200;2023-02-08T11:12:54;20.27;;;11.85;;
9485;SDS011;4781;48.776;9.200;2023-02-08T11:15:34;17.73;;;10.93;;
9485;SDS011;4781;48.776;9.200;2023-02-08T11:21:07;19.23;;;11.30;;
9485;SDS011;4781;48.776;9.200;2023-02-08T11:24:00;18.23;;;10.40;;
9485;SDS011;4781;48.776;9.200;2023-02-08T11:26:41;15.83;;;10.20;;
9485;SDS011;4781;48.776;9.200;2023-02-08T11:29:20;19.75;;;11.33;;
9485;SDS011;4781;48.776;9.200;2023-02-08T11:34:43;14.20;;;10.08;;
9485;SDS011;4781;48.776;9.200;2023-02-08T11:37:13;17.57;;;10.58;;
9485;SDS011;4781;48.776;9.200;2023-02-08T11:39:54;17.82;;;10.75;;
9485;SDS011;4781;48.776;9.200;2023-02-08T11:42:36;19.77;;;10.98;;
9485;SDS011;4781;48.776;9.200;2023-02-08T11:45:06;20.10;;;11.03;;
9485;SDS011;4781;48.776;9.200;2023-02-08T11:47:37;18.75;;;10.43;;
9485;SDS011;4781;48.776;9.200;2023-02-08T11:50:06;16.05;;;10.78;;
9485;SDS011;4781;48.776;9.200;2023-02-08T11:52:40;14.33;;;9.58;;
9485;SDS011;4781;48.776;9.200;2023-02-08T11:55:12;16.55;;;10.05;;
9485;SDS011;4781;48.776;9.200;2023-02-08T12:00:38;14.73;;;9.43;;
9485;SDS011;4781;48.776;9.200;2023-02-08T12:03:14;13.15;;;7.92;;
9485;SDS011;4781;48.776;9.200;2023-02-08T12:11:46;16.17;;;8.48;;
9485;SDS011;4781;48.776;9.200;2023-02-08T12:14:21;13.75;;;8.55;;
9485;SDS011;4781;48.776;9.200;2023-02-08T12:17:19;15.03;;;8.43;;
9485;SDS011;4781;48.776;9.200;2023-02-08T12:20:24;14.75;;;9.25;;
9485;SDS011;4781;48.776;9.200;2023-02-08T12:23:46;12.85;;;8.83;;
9485;SDS011;4781;48.776;9.200;2023-02-08T12:31:45;17.65;;;8.30;;
9485;SDS011;4781;48.776;9.200;2023-02-08T12:37:21;13.65;;;8.43;;
9485;SDS011;4781;48.776;9.200;2023-02-08T12:40:40;13.10;;;7.33;;
9485;SDS011;4781;48.776;9.200;2023-02-08T12:46:20;13.53;;;7.35;;
9485;SDS011;4781;48.776;9.200;2023-02-08T12:52:12;12.55;;;8.03;;
9485;SDS011;4781;48.776;9.200;2023-02-08T12:54:54;13.40;;;7.85;;
9485;SDS011;4781;48.776;9.200;2023-02-08T12:57:28;17.77;;;7.75;;
9485;SDS011;4781;48.776;9.200;2023-02-08T13:00:45;12.88;;;7.70;;
9485;SDS011;4781;48.776;9.200;2023-02-08T13:02:43;13.10;;;7.00;;
9485;SDS011;4781;48.776;9.200;2023-02-08T13:05:27;14.53;;;7.97;;
9485;SDS011;4781;48.776;9.200;2023-02-08T13:08:01;12.50;;;7.28;;
9485;SDS011;4781;48.776;9.200;2023-02-08T13:11:02;18.62;;;8.00;;
9485;SDS011;4781;48.776;9.200;2023-02-08T13:13:39;14.43;;;7.62;;
9485;SDS011;4781;48.776;9.200;2023-02-08T13:16:15;13.60;;;8.15;;
9485;SDS011;4781;48.776;9.200;2023-02-08T13:19:06;14.20;;;7.28;;
9485;SDS011;4781;48.776;9.200;2023-02-08T13:21:43;16.12;;;8.13;;
9485;SDS011;4781;48.776;9.200;2023-02-08T13:24:26;13.05;;;7.62;;
9485;SDS011;4781;48.776;9.200;2023-02-08T13:27:03;14.38;;;7.62;;
9485;SDS011;4781;48.776;9.200;2023-02-08T13:29:34;12.88;;;6.80;;
9485;SDS011;4781;48.776;9.200;2023-02-08T13:32:14;12.85;;;7.67;;
9485;SDS011;4781;48.776;9.200;2023-02-08T13:35:12;13.83;;;7.70;;
9485;SDS011;4781;48.776;9.200;2023-02-08T13:37:59;13.53;;;8.23;;
9485;SDS011;4781;48.776;9.200;2023-02-08T13:40:35;12.73;;;7.83;;
9485;SDS011;4781;48.776;9.200;2023-02-08T13:43:06;13.05;;;7.37;;
9485;SDS011;4781;48.776;9.200;2023-02-08T13:45:39;11.15;;;6.53;;
9485;SDS011;4781;48.776;9.200;2023-02-08T13:48:13;12.95;;;5.80;;
9485;SDS011;4781;48.776;9.200;2023-02-08T13:50:49;12.60;;;6.55;;
9485;SDS011;4781;48.776;9.200;2023-02-08T13:56:18;14.70;;;6.55;;
9485;SDS011;4781;48.776;9.200;2023-02-08T14:01:27;11.75;;;6.40;;
9485;SDS011;4781;48.776;9.200;2023-02-08T14:11:56;11.18;;;6.55;;
9485;SDS011;4781;48.776;9.200;2023-02-08T14:14:32;11.12;;;6.90;;
9485;SDS011;4781;48.776;9.200;2023-02-08T14:19:39;12.93;;;6.97;;
9485;SDS011;4781;48.776;9.200;2023-02-08T14:24:58;11.38;;;6.83;;
9485;SDS011;4781;48.776;9.200;2023-02-08T14:30:08;11.80;;;6.90;;
9485;SDS011;4781;48.776;9.200;2023-02-08T14:32:47;12.85;;;7.53;;
9485;SDS011;4781;48.776;9.200;2023-02-08T14:35:40;12.68;;;7.05;;
9485;SDS011;4781;48.776;9.200;2023-02-08T14:41:40;11.97;;;6.87;;
9485;SDS011;4781;48.776;9.200;2023-02-08T14:47:14;15.25;;;7.47;;
9485;SDS011;4781;48.776;9.200;2023-02-08T14:50:15;13.28;;;7.78;;
9485;SDS011;4781;48.776;9.200;2023-02-08T14:52:51;12.40;;;7.22;;
9485;SDS011;4781;48.776;9.200;2023-02-08T14:55:24;13.88;;;7.42;;
9485;SDS011;4781;48.776;9.200;2023-02-08T14:57:58;13.80;;;8.00;;
9485;SDS011;4781;48.776;9.200;2023-02-08T15:00:31;13.60;;;7.35;;
9485;SDS011;4781;48.776;9.200;2023-02-08T15:03:03;12.37;;;7.40;;
9485;SDS011;4781;48.776;9.200;2023-02-08T15:05:37;15.45;;;8.55;;
9485;SDS011;4781;48.776;9.200;2023-02-08T15:08:08;13.30;;;8.35;;
9485;SDS011;4781;48.776;9.200;2023-02-08T15:10:39;13.15;;;7.95;;
9485;SDS011;4781;48.776;9.200;2023-02-08T15:13:29;12.65;;;7.37;;
9485;SDS011;4781;48.776;9.200;2023-02-08T15:15:52;14.00;;;7.65;;
9485;SDS011;4781;48.776;9.200;2023-02-08T15:18:31;13.98;;;8.40;;
9485;SDS011;4781;48.776;9.200;2023-02-08T15:21:04;13.98;;;8.13;;
9485;SDS011;4781;48.776;9.200;2023-02-08T15:23:36;12.68;;;7.83;;
9485;SDS011;4781;48.776;9.200;2023-02-08T15:26:05;16.67;;;9.35;;
9485;SDS011;4781;48.776;9.200;2023-02-08T15:28:48;14.95;;;8.18;;
9485;SDS011;4781;48.776;9.200;2023-02-08T15:31:17;12.53;;;8.05;;
9485;SDS011;4781;48.776;9.200;2023-02-08T15:33:50;15.05;;;8.20;;
9485;SDS011;4781;48.776;9.200;2023-02-08T15:36:29;14.00;;;8.08;;
9485;SDS011;4781;48.776;9.200;2023-02-08T15:39:02;14.63;;;8.48;;
9485;SDS011;4781;48.776;9.200;2023-02-08T15:41:36;17.52;;;8.88;;
9485;SDS011;4781;48.776;9.200;2023-02-08T15:46:47;16.62;;;10.10;;
9485;SDS011;4781;48.776;9.200;2023-02-08T15:49:40;16.32;;;10.20;;
9485;SDS011;4781;48.776;9.200;2023-02-08T15:52:05;20.80;;;11.45;;
9485;SDS011;4781;48.776;9.200;2023-02-08T15:54:37;16.90;;;11.12;;
9485;SDS011;4781;48.776;9.200;2023-02-08T15:57:06;19.10;;;11.25;;
9485;SDS011;4781;48.776;9.200;2023-02-08T15:59:54;17.70;;;10.43;;
9485;SDS011;4781;48.776;9.200;2023-02-08T16:02:28;18.90;;;11.65;;
9485;SDS011;4781;48.776;9.200;2023-02-08T16:07:48;20.65;;;11.57;;
9485;SDS011;4781;48.776;9.200;2023-02-08T16:10:33;18.05;;;10.53;;
9485;SDS011;4781;48.776;9.200;2023-02-08T16:13:19;19.75;;;11.08;;
9485;SDS011;4781;48.776;9.200;2023-02-08T16:15:56;18.95;;;11.45;;
9485;SDS011;4781;48.776;9.200;2023-02-08T16:18:49;21.40;;;11.60;;
9485;SDS011;4781;48.776;9.200;2023-02-08T16:21:34;20.75;;;11.10;;
9485;SDS011;4781;48.776;9.200;2023-02-08T16:26:51;20.25;;;11.80;;
9485;SDS011;4781;48.776;9.200;2023-02-08T16:29:31;17.77;;;10.23;;
9485;SDS011;4781;48.776;9.200;2023-02-08T16:32:06;18.92;;;11.28;;
9485;SDS011;4781;48.776;9.200;2023-02-08T16:34:54;18.52;;;11.05;;
9485;SDS011;4781;48.776;9.200;2023-02-08T16:37:25;19.20;;;11.43;;
9485;SDS011;4781;48.776;9.200;2023-02-08T16:40:00;19.32;;;11.88;;
9485;SDS011;4781;48.776;9.200;2023-02-08T16:42:32;21.52;;;11.53;;
9485;SDS011;4781;48.776;9.200;2023-02-08T16:47:41;22.67;;;11.60;;
9485;SDS011;4781;48.776;9.200;2023-02-08T16:50:15;21.77;;;12.45;;
9485;SDS011;4781;48.776;9.200;2023-02-08T16:52:52;18.75;;;11.95;;
9485;SDS011;4781;48.776;9.200;2023-02-08T16:55:23;22.60;;;12.78;;
9485;SDS011;4781;48.776;9.200;2023-02-08T16:57:55;24.32;;;13.13;;
9485;SDS011;4781;48.776;9.200;2023-02-08T17:00:29;21.87;;;12.63;;
9485;SDS011;4781;48.776;9.200;2023-02-08T17:03:01;20.10;;;11.95;;
9485;SDS011;4781;48.776;9.200;2023-02-08T17:05:30;20.32;;;12.53;;
9485;SDS011;4781;48.776;9.200;2023-02-08T17:08:04;19.55;;;12.10;;
9485;SDS011;4781;48.776;9.200;2023-02-08T17:10:36;23.05;;;13.22;;
9485;SDS011;4781;48.776;9.200;2023-02-08T17:13:05;21.57;;;12.93;;
9485;SDS011;4781;48.776;9.200;2023-02-08T17:15:35;23.40;;;12.85;;
9485;SDS011;4781;48.776;9.200;2023-02-08T17:18:04;20.02;;;12.30;;
9485;SDS011;4781;48.776;9.200;2023-02-08T17:20:33;25.00;;;13.78;;
9485;SDS011;4781;48.776;9.200;2023-02-08T17:23:03;22.48;;;13.35;;
9485;SDS011;4781;48.776;9.200;2023-02-08T17:25:32;23.47;;;13.72;;
9485;SDS011;4781;48.776;9.200;2023-02-08T17:28:07;20.85;;;12.82;;
9485;SDS011;4781;48.776;9.200;2023-02-08T17:30:43;23.12;;;13.05;;
9485;SDS011;4781;48.776;9.200;2023-02-08T17:33:12;23.80;;;13.80;;
9485;SDS011;4781;48.776;9.200;2023-02-08T17:35:43;22.55;;;13.30;;
9485;SDS011;4781;48.776;9.200;2023-02-08T17:38:14;23.90;;;13.62;;
9485;SDS011;4781;48.776;9.200;2023-02-08T17:40:43;24.43;;;14.68;;
9485;SDS011;4781;48.776;9.200;2023-02-08T17:43:12;23.47;;;13.05;;
9485;SDS011;4781;48.776;9.200;2023-02-08T17:45:42;22.98;;;13.93;;